createdAt,value
2023-04-08T00:01:06.878Z,7.82
2023-04-08T00:03:34.162Z,9.27
2023-04-08T00:06:03.169Z,14.38
2023-04-08T00:08:30.723Z,11.50
2023-04-08T00:10:57.833Z,13.50
2023-04-08T00:13:24.811Z,12.52
2023-04-08T00:15:51.759Z,13.48
2023-04-08T00:18:18.862Z,14.55
2023-04-08T00:20:45.880Z,12.13
2023-04-08T00:23:12.976Z,17.17
2023-04-08T00:25:39.932Z,16.90
2023-04-08T00:28:06.981Z,11.98
2023-04-08T00:30:33.957Z,9.35
2023-04-08T00:33:02.962Z,11.43
2023-04-08T00:35:30.070Z,12.65
2023-04-08T00:37:57.040Z,11.88
2023-04-08T00:40:24.079Z,11.07
2023-04-08T00:42:51.298Z,10.88
2023-04-08T00:45:18.275Z,7.82
2023-04-08T00:47:46.705Z,10.02
2023-04-08T00:50:13.780Z,10.27
2023-04-08T00:52:40.863Z,12.68
2023-04-08T00:55:08.068Z,11.82
2023-04-08T00:57:35.284Z,12.23
2023-04-08T01:00:05.312Z,12.02
2023-04-08T01:03:09.180Z,10.65
2023-04-08T01:05:41.594Z,14.18
2023-04-08T01:08:09.834Z,14.82
2023-04-08T01:10:41.481Z,21.38
2023-04-08T01:13:12.589Z,12.35
2023-04-08T01:15:42.676Z,12.48
2023-04-08T01:18:13.815Z,13.15
2023-04-08T01:20:43.014Z,9.80
2023-04-08T01:23:47.192Z,9.75
2023-04-08T01:26:23.542Z,9.52
2023-04-08T01:28:57.973Z,11.20
2023-04-08T01:31:26.694Z,9.27
2023-04-08T01:33:55.346Z,9.27
2023-04-08T01:36:24.387Z,10.00
2023-04-08T01:38:51.908Z,10.23
2023-04-08T01:41:21.241Z,10.55
2023-04-08T01:43:49.911Z,10.05
2023-04-08T01:46:17.559Z,12.32
2023-04-08T01:48:45.943Z,13.85
2023-04-08T01:51:13.446Z,11.45
2023-04-08T01:53:40.529Z,12.63
2023-04-08T01:56:12.982Z,8.52
2023-04-08T01:58:48.091Z,13.45
2023-04-08T02:01:19.036Z,11.05
2023-04-08T02:03:47.745Z,10.55
2023-04-08T02:06:14.747Z,10.23
2023-04-08T02:08:41.695Z,11.63
2023-04-08T02:11:08.627Z,15.05
2023-04-08T02:13:35.889Z,13.77
2023-04-08T02:16:34.174Z,13.88
2023-04-08T02:19:11.724Z,11.65
2023-04-08T02:21:53.576Z,10.25
2023-04-08T02:24:21.545Z,13.18
2023-04-08T02:26:52.192Z,12.48
2023-04-08T02:29:19.662Z,12.40
2023-04-08T02:31:48.623Z,12.95
2023-04-08T02:34:16.320Z,13.27
2023-04-08T02:36:46.187Z,12.55
2023-04-08T02:39:13.821Z,12.68
2023-04-08T02:41:40.803Z,22.45
2023-04-08T02:44:07.833Z,13.23
2023-04-08T02:46:34.853Z,12.07
2023-04-08T02:49:03.526Z,13.38
2023-04-08T02:51:32.134Z,13.98
2023-04-08T02:53:59.074Z,13.48
2023-04-08T02:56:26.045Z,12.68
2023-04-08T02:58:53.089Z,14.40
2023-04-08T03:01:20.104Z,15.07
2023-04-08T03:03:47.149Z,10.43
2023-04-08T03:06:14.146Z,7.97
2023-04-08T03:08:41.082Z,10.55
2023-04-08T03:11:08.114Z,10.95
2023-04-08T03:13:35.559Z,12.10
2023-04-08T03:16:02.606Z,12.20
2023-04-08T03:18:29.613Z,15.32
2023-04-08T03:20:57.230Z,14.88
2023-04-08T03:23:24.274Z,14.48
2023-04-08T03:25:51.234Z,14.02
2023-04-08T03:28:18.296Z,16.08
2023-04-08T03:30:45.444Z,14.00
2023-04-08T03:33:12.478Z,17.48
2023-04-08T03:35:39.744Z,14.80
2023-04-08T03:38:06.909Z,12.80
2023-04-08T03:40:33.843Z,12.23
2023-04-08T03:43:01.176Z,15.77
2023-04-08T03:45:28.153Z,16.70
2023-04-08T03:47:55.143Z,14.68
2023-04-08T03:50:22.208Z,15.75
2023-04-08T03:52:49.166Z,15.38
2023-04-08T03:55:16.150Z,13.18
2023-04-08T03:57:44.651Z,13.52
2023-04-08T04:00:12.342Z,15.73
2023-04-08T04:02:39.513Z,14.10
2023-04-08T04:05:07.134Z,14.00
2023-04-08T04:07:34.049Z,14.35
2023-04-08T04:10:00.992Z,14.40
2023-04-08T04:12:27.992Z,17.30
2023-04-08T04:14:55.696Z,14.70
2023-04-08T04:17:22.729Z,18.55
2023-04-08T04:19:49.743Z,12.60
2023-04-08T04:22:16.692Z,18.58
2023-04-08T04:24:48.825Z,12.13
2023-04-08T04:27:18.316Z,14.75
2023-04-08T04:29:45.300Z,13.88
2023-04-08T04:32:12.263Z,14.38
2023-04-08T04:34:39.323Z,16.17
2023-04-08T04:37:06.315Z,16.67
2023-04-08T04:39:33.320Z,15.35
2023-04-08T04:42:00.337Z,14.98
2023-04-08T04:44:27.259Z,16.20
2023-04-08T04:46:54.315Z,15.80
2023-04-08T04:49:21.344Z,15.88
2023-04-08T04:51:49.209Z,17.00
2023-04-08T04:54:16.164Z,16.45
2023-04-08T04:56:43.187Z,18.95
2023-04-08T04:59:10.666Z,17.30
2023-04-08T05:01:37.904Z,15.13
2023-04-08T05:04:04.975Z,17.27
2023-04-08T05:06:32.079Z,14.13
2023-04-08T05:08:59.393Z,17.98
2023-04-08T05:11:26.435Z,14.68
2023-04-08T05:13:53.533Z,16.23
2023-04-08T05:16:20.551Z,15.75
2023-04-08T05:18:47.719Z,13.57
2023-04-08T05:21:15.006Z,16.10
2023-04-08T05:23:41.979Z,16.45
2023-04-08T05:26:09.119Z,14.60
2023-04-08T05:28:36.635Z,14.82
2023-04-08T05:31:03.853Z,17.23
2023-04-08T05:33:30.986Z,17.13
2023-04-08T05:35:58.083Z,16.85
2023-04-08T05:38:25.314Z,19.05
2023-04-08T05:40:52.495Z,15.57
2023-04-08T05:43:19.514Z,13.70
2023-04-08T05:45:46.771Z,15.27
2023-04-08T05:48:17.174Z,18.23
2023-04-08T05:50:44.343Z,12.45
2023-04-08T05:53:11.540Z,15.32
2023-04-08T05:55:38.637Z,14.55
2023-04-08T05:58:08.335Z,13.30
2023-04-08T06:00:35.508Z,11.93
2023-04-08T06:03:02.890Z,13.57
2023-04-08T06:05:29.937Z,12.95
2023-04-08T06:07:56.924Z,13.70
2023-04-08T06:10:27.067Z,12.35
2023-04-08T06:12:54.139Z,15.85
2023-04-08T06:15:21.542Z,18.35
2023-04-08T06:17:48.619Z,12.60
2023-04-08T06:20:16.048Z,13.15
2023-04-08T06:22:43.185Z,10.48
2023-04-08T06:25:10.378Z,11.07
2023-04-08T06:27:37.499Z,11.63
2023-04-08T06:30:05.041Z,14.75
2023-04-08T06:32:32.052Z,10.90
2023-04-08T06:34:59.170Z,12.00
2023-04-08T06:37:26.318Z,11.80
2023-04-08T06:39:53.347Z,8.13
2023-04-08T06:42:21.943Z,10.32
2023-04-08T06:45:14.806Z,11.18
2023-04-08T06:47:42.059Z,15.23
2023-04-08T06:50:09.850Z,13.73
2023-04-08T06:52:37.020Z,17.27
2023-04-08T06:55:04.566Z,11.13
2023-04-08T06:57:31.690Z,10.70
2023-04-08T07:00:02.172Z,9.05
2023-04-08T07:02:29.247Z,12.38
2023-04-08T07:04:56.268Z,13.30
2023-04-08T07:07:24.447Z,12.80
2023-04-08T07:09:51.969Z,11.95
2023-04-08T07:12:19.134Z,15.48
2023-04-08T07:14:46.315Z,14.15
2023-04-08T07:17:13.548Z,14.32
2023-04-08T07:19:41.101Z,13.73
2023-04-08T07:22:08.039Z,14.20
2023-04-08T07:24:35.248Z,13.55
2023-04-08T07:27:02.264Z,13.43
2023-04-08T07:29:29.470Z,13.05
2023-04-08T07:31:56.668Z,17.65
2023-04-08T07:34:23.688Z,12.80
2023-04-08T07:36:50.995Z,12.98
2023-04-08T07:39:17.956Z,15.30
2023-04-08T07:41:44.986Z,14.60
2023-04-08T07:44:12.401Z,12.15
2023-04-08T07:46:39.738Z,14.07
2023-04-08T07:49:06.994Z,13.80
2023-04-08T07:51:33.936Z,11.20
2023-04-08T07:54:01.216Z,14.77
2023-04-08T07:56:28.165Z,14.75
2023-04-08T07:58:55.666Z,12.82
2023-04-08T08:01:24.369Z,8.90
2023-04-08T08:03:52.983Z,13.13
2023-04-08T08:06:20.764Z,12.18
2023-04-08T08:08:48.016Z,13.15
2023-04-08T08:11:14.956Z,15.05
2023-04-08T08:13:41.928Z,12.80
2023-04-08T08:16:11.435Z,13.73
2023-04-08T08:18:40.323Z,14.27
2023-04-08T08:21:08.677Z,12.20
2023-04-08T08:23:35.836Z,10.70
2023-04-08T08:26:06.330Z,13.27
2023-04-08T08:28:33.863Z,12.05
2023-04-08T08:31:00.823Z,13.98
2023-04-08T08:33:27.968Z,12.02
2023-04-08T08:35:55.999Z,10.75
2023-04-08T08:38:23.026Z,10.32
2023-04-08T08:40:56.297Z,12.18
2023-04-08T08:43:25.060Z,10.15
2023-04-08T08:45:52.145Z,11.65
2023-04-08T08:48:19.199Z,11.70
2023-04-08T08:50:46.652Z,9.93
2023-04-08T08:53:13.708Z,9.65
2023-04-08T08:56:05.627Z,9.52
2023-04-08T08:58:28.618Z,8.48
2023-04-08T09:00:56.066Z,10.82
2023-04-08T09:03:28.743Z,9.88
2023-04-08T09:06:01.507Z,10.13
2023-04-08T09:08:36.855Z,10.23
2023-04-08T09:11:17.952Z,9.35
2023-04-08T09:13:46.270Z,9.38
2023-04-08T09:16:17.922Z,10.82
2023-04-08T09:18:47.457Z,9.20
2023-04-08T09:21:19.589Z,8.23
2023-04-08T09:23:48.506Z,8.48
2023-04-08T09:26:22.287Z,8.50
2023-04-08T09:29:18.192Z,8.65
2023-04-08T09:32:02.026Z,8.57
2023-04-08T09:34:32.365Z,10.77
2023-04-08T09:36:59.383Z,9.35
2023-04-08T09:39:26.456Z,8.38
2023-04-08T09:42:01.133Z,11.23
2023-04-08T09:44:29.880Z,14.73
2023-04-08T09:47:11.307Z,10.65
2023-04-08T09:49:50.548Z,10.00
2023-04-08T09:52:24.955Z,11.05
2023-04-08T09:54:59.950Z,9.18
2023-04-08T09:58:08.019Z,13.90
2023-04-08T10:00:43.252Z,9.90
2023-04-08T10:03:34.702Z,9.85
2023-04-08T10:06:03.548Z,10.73
2023-04-08T10:08:33.041Z,12.73
2023-04-08T10:11:00.181Z,11.07
2023-04-08T10:13:28.611Z,9.38
2023-04-08T10:16:25.332Z,11.13
2023-04-08T10:18:55.815Z,10.00
2023-04-08T10:21:39.621Z,10.20
2023-04-08T10:24:11.987Z,12.35
2023-04-08T10:26:41.813Z,11.25
2023-04-08T10:29:17.814Z,8.20
2023-04-08T10:31:46.283Z,13.20
2023-04-08T10:34:24.948Z,9.73
2023-04-08T10:36:52.594Z,9.13
2023-04-08T10:39:19.588Z,8.55
2023-04-08T10:41:49.739Z,9.48
2023-04-08T10:44:25.540Z,10.52
2023-04-08T10:46:53.991Z,13.18
2023-04-08T10:49:22.162Z,10.20
2023-04-08T10:51:49.418Z,9.38
2023-04-08T10:54:18.417Z,12.90
2023-04-08T10:56:54.685Z,11.68
2023-04-08T10:59:32.031Z,9.73
2023-04-08T11:02:00.547Z,9.80
2023-04-08T11:04:27.784Z,8.90
2023-04-08T11:06:54.788Z,9.27
2023-04-08T11:09:21.798Z,6.82
2023-04-08T11:11:48.811Z,9.43
2023-04-08T11:14:19.733Z,8.68
2023-04-08T11:16:46.757Z,8.68
2023-04-08T11:19:14.422Z,9.30
2023-04-08T11:21:41.556Z,9.73
2023-04-08T11:24:13.268Z,10.32
2023-04-08T11:26:41.620Z,8.98
2023-04-08T11:29:14.364Z,9.38
2023-04-08T11:31:42.906Z,8.60
2023-04-08T11:34:10.076Z,11.15
2023-04-08T11:36:40.311Z,11.77
2023-04-08T11:39:09.457Z,13.68
2023-04-08T11:41:38.858Z,9.68
2023-04-08T11:44:07.210Z,12.30
2023-04-08T11:46:35.565Z,9.77
2023-04-08T11:49:08.889Z,9.05
2023-04-08T11:51:55.029Z,10.88
2023-04-08T11:54:33.377Z,11.43
2023-04-08T11:57:01.282Z,9.15
2023-04-08T11:59:29.640Z,8.90
2023-04-08T12:01:57.299Z,9.02
2023-04-08T12:04:24.700Z,15.27
2023-04-08T12:06:52.545Z,8.35
2023-04-08T12:09:20.025Z,10.63
2023-04-08T12:11:47.110Z,9.15
2023-04-08T12:14:15.228Z,10.98
2023-04-08T12:16:42.663Z,10.27
2023-04-08T12:19:09.779Z,8.82
2023-04-08T12:21:36.768Z,10.52
2023-04-08T12:24:04.167Z,10.07
2023-04-08T12:26:31.319Z,10.95
2023-04-08T12:28:58.433Z,8.80
2023-04-08T12:31:27.880Z,11.90
2023-04-08T12:33:54.965Z,10.23
2023-04-08T12:36:21.996Z,9.13
2023-04-08T12:38:49.249Z,10.48
2023-04-08T12:41:16.378Z,9.90
2023-04-08T12:43:43.418Z,8.77
2023-04-08T12:46:10.563Z,12.60
2023-04-08T12:48:37.979Z,11.80
2023-04-08T12:51:05.388Z,12.20
2023-04-08T12:53:32.354Z,13.40
2023-04-08T12:55:59.362Z,13.07
2023-04-08T12:58:26.377Z,10.98
2023-04-08T13:00:53.735Z,13.13
2023-04-08T13:03:20.991Z,13.82
2023-04-08T13:05:48.681Z,13.05
2023-04-08T13:08:16.796Z,13.45
2023-04-08T13:10:43.977Z,13.98
2023-04-08T13:13:14.281Z,12.75
2023-04-08T13:15:41.369Z,12.63
2023-04-08T13:18:08.855Z,14.48
2023-04-08T13:20:36.736Z,12.35
2023-04-08T13:23:04.114Z,12.02
2023-04-08T13:25:31.500Z,15.13
2023-04-08T13:27:58.457Z,12.00
2023-04-08T13:30:25.438Z,12.75
2023-04-08T13:32:52.415Z,14.48
2023-04-08T13:35:19.724Z,14.77
2023-04-08T13:37:46.824Z,12.45
2023-04-08T13:40:14.469Z,13.63
2023-04-08T13:42:41.726Z,15.15
2023-04-08T13:45:09.435Z,15.23
2023-04-08T13:47:38.094Z,14.95
2023-04-08T13:50:07.830Z,14.00
2023-04-08T13:52:35.224Z,15.57
2023-04-08T13:55:02.228Z,15.30
2023-04-08T13:57:32.115Z,15.55
2023-04-08T13:59:59.185Z,15.60
2023-04-08T14:02:26.792Z,17.58
2023-04-08T14:04:53.979Z,18.35
2023-04-08T14:07:21.195Z,16.15
2023-04-08T14:09:48.194Z,15.95
2023-04-08T14:12:15.467Z,19.42
2023-04-08T14:14:42.609Z,20.20
2023-04-08T14:17:09.661Z,18.63
2023-04-08T14:19:36.715Z,17.00
2023-04-08T14:22:03.700Z,21.25
2023-04-08T14:24:30.846Z,19.20
2023-04-08T14:26:58.199Z,18.15
2023-04-08T14:29:26.630Z,15.95
2023-04-08T14:31:54.696Z,19.67
2023-04-08T14:34:24.881Z,19.05
2023-04-08T14:36:51.868Z,20.52
2023-04-08T14:39:18.839Z,19.02
2023-04-08T14:41:47.681Z,18.10
2023-04-08T14:44:14.644Z,20.30
2023-04-08T14:46:41.726Z,16.73
2023-04-08T14:49:08.684Z,15.18
2023-04-08T14:51:37.842Z,18.33
2023-04-08T14:54:05.818Z,18.25
2023-04-08T14:56:33.318Z,18.70
2023-04-08T14:59:00.612Z,16.80
2023-04-08T15:01:29.002Z,21.50
2023-04-08T15:03:56.203Z,18.08
2023-04-08T15:06:23.699Z,21.10
2023-04-08T15:08:51.180Z,21.40
2023-04-08T15:11:20.838Z,19.02
2023-04-08T15:13:47.828Z,20.35
2023-04-08T15:16:15.001Z,16.73
2023-04-08T15:18:42.339Z,19.15
2023-04-08T15:21:09.487Z,14.95
2023-04-08T15:23:40.644Z,18.40
2023-04-08T15:26:09.410Z,13.70
2023-04-08T15:28:38.060Z,18.63
2023-04-08T15:31:08.082Z,19.35
2023-04-08T15:33:35.432Z,18.83
2023-04-08T15:36:04.183Z,16.13
2023-04-08T15:38:33.570Z,21.02
2023-04-08T15:41:00.929Z,17.17
2023-04-08T15:43:28.478Z,17.98
2023-04-08T15:45:58.089Z,17.02
2023-04-08T15:48:25.344Z,14.95
2023-04-08T15:50:52.497Z,16.08
2023-04-08T15:53:19.806Z,13.40
2023-04-08T15:55:47.002Z,14.73
2023-04-08T15:58:14.206Z,16.00
2023-04-08T16:00:41.716Z,15.52
2023-04-08T16:03:12.014Z,16.58
2023-04-08T16:05:41.566Z,17.13
2023-04-08T16:08:09.417Z,13.60
2023-04-08T16:10:36.493Z,14.02
2023-04-08T16:13:03.831Z,14.80
2023-04-08T16:15:30.985Z,14.38
2023-04-08T16:17:57.948Z,15.85
2023-04-08T16:20:25.002Z,13.98
2023-04-08T16:22:52.015Z,15.38
2023-04-08T16:25:19.299Z,15.30
2023-04-08T16:27:47.701Z,15.38
2023-04-08T16:30:15.058Z,18.05
2023-04-08T16:32:42.219Z,14.10
2023-04-08T16:35:09.533Z,14.82
2023-04-08T16:37:36.561Z,13.75
2023-04-08T16:40:03.999Z,21.55
2023-04-08T16:42:31.417Z,18.58
2023-04-08T16:44:59.645Z,15.63
2023-04-08T16:47:27.634Z,24.67
2023-04-08T16:49:55.038Z,14.68
2023-04-08T16:52:22.138Z,16.58
2023-04-08T16:54:49.411Z,15.60
2023-04-08T16:57:16.729Z,17.75
2023-04-08T16:59:43.873Z,18.02
2023-04-08T17:02:11.079Z,12.27
2023-04-08T17:04:38.166Z,14.27
2023-04-08T17:07:05.296Z,15.45
2023-04-08T17:09:32.380Z,13.18
2023-04-08T17:11:59.467Z,15.18
2023-04-08T17:14:29.667Z,16.38
2023-04-08T17:16:57.235Z,15.10
2023-04-08T17:19:24.529Z,15.75
2023-04-08T17:21:52.139Z,15.25
2023-04-08T17:24:19.241Z,21.50
2023-04-08T17:26:46.690Z,16.13
2023-04-08T17:29:13.645Z,16.52
2023-04-08T17:31:41.427Z,15.80
2023-04-08T17:34:08.489Z,13.85
2023-04-08T17:36:35.658Z,16.63
2023-04-08T17:39:02.773Z,14.38
2023-04-08T17:41:38.946Z,16.52
2023-04-08T17:44:07.096Z,16.38
2023-04-08T17:46:34.200Z,18.08
2023-04-08T17:49:01.987Z,14.98
2023-04-08T17:51:30.267Z,15.40
2023-04-08T17:53:57.697Z,17.88
2023-04-08T17:56:24.971Z,19.48
2023-04-08T17:58:51.955Z,17.35
2023-04-08T18:01:22.617Z,21.27
2023-04-08T18:03:51.792Z,20.42
2023-04-08T18:06:19.213Z,26.88
2023-04-08T18:08:46.219Z,15.10
2023-04-08T18:11:13.350Z,17.88
2023-04-08T18:13:40.444Z,23.15
2023-04-08T18:16:16.501Z,16.98
2023-04-08T18:18:43.690Z,16.92
2023-04-08T18:21:10.892Z,22.05
2023-04-08T18:23:37.980Z,19.70
2023-04-08T18:26:07.680Z,20.25
2023-04-08T18:28:34.787Z,16.67
2023-04-08T18:31:01.823Z,21.15
2023-04-08T18:33:29.475Z,21.08
2023-04-08T18:35:59.496Z,20.30
2023-04-08T18:38:26.752Z,20.55
2023-04-08T18:40:53.932Z,18.63
2023-04-08T18:43:20.982Z,18.67
2023-04-08T18:45:48.033Z,19.35
2023-04-08T18:48:15.477Z,19.58
2023-04-08T18:50:42.496Z,18.77
2023-04-08T18:53:09.600Z,22.85
2023-04-08T18:55:38.681Z,22.20
2023-04-08T18:58:05.906Z,23.15
2023-04-08T19:00:33.103Z,23.17
2023-04-08T19:03:00.211Z,23.70
2023-04-08T19:05:27.393Z,24.52
2023-04-08T19:07:54.506Z,22.90
2023-04-08T19:10:23.524Z,22.83
2023-04-08T19:12:51.437Z,20.45
2023-04-08T19:15:18.447Z,23.67
2023-04-08T19:17:46.098Z,28.27
2023-04-08T19:20:13.268Z,25.25
2023-04-08T19:22:40.856Z,26.23
2023-04-08T19:25:08.571Z,23.63
2023-04-08T19:27:35.866Z,26.55
2023-04-08T19:30:02.958Z,26.83
2023-04-08T19:32:30.031Z,24.33
2023-04-08T19:34:57.052Z,24.10
2023-04-08T19:37:24.360Z,25.85
2023-04-08T19:39:51.356Z,26.05
2023-04-08T19:42:19.581Z,29.40
2023-04-08T19:44:49.343Z,30.13
2023-04-08T19:47:17.617Z,27.52
2023-04-08T19:49:44.747Z,27.58
2023-04-08T19:52:12.370Z,27.02
2023-04-08T19:54:41.295Z,27.15
2023-04-08T19:57:09.344Z,30.35
2023-04-08T19:59:37.470Z,33.63
2023-04-08T20:02:04.977Z,28.42
2023-04-08T20:04:32.770Z,26.77
2023-04-08T20:07:03.604Z,27.92
2023-04-08T20:09:32.632Z,30.95
2023-04-08T20:12:04.674Z,25.17
2023-04-08T20:14:37.950Z,31.30
2023-04-08T20:17:05.092Z,29.50
2023-04-08T20:19:33.416Z,27.95
2023-04-08T20:22:01.710Z,28.38
2023-04-08T20:24:29.904Z,27.65
2023-04-08T20:26:59.900Z,30.25
2023-04-08T20:29:27.136Z,30.30
2023-04-08T20:31:55.537Z,28.40
2023-04-08T20:34:22.746Z,30.25
2023-04-08T20:36:49.736Z,32.95
2023-04-08T20:39:16.837Z,32.10
2023-04-08T20:41:44.030Z,36.95
2023-04-08T20:44:11.113Z,34.47
2023-04-08T20:46:39.203Z,31.30
2023-04-08T20:49:06.669Z,37.30
2023-04-08T20:51:33.890Z,36.88
2023-04-08T20:54:01.104Z,36.35
2023-04-08T20:56:28.427Z,33.80
2023-04-08T20:58:58.242Z,36.40
2023-04-08T21:01:27.093Z,35.67
2023-04-08T21:03:54.808Z,37.50
2023-04-08T21:06:22.450Z,36.25
2023-04-08T21:08:50.633Z,39.40
2023-04-08T21:11:17.837Z,39.15
2023-04-08T21:13:46.666Z,36.72
2023-04-08T21:16:16.398Z,37.35
2023-04-08T21:18:43.527Z,37.53
2023-04-08T21:21:13.437Z,40.35
2023-04-08T21:23:40.500Z,34.15
2023-04-08T21:26:13.654Z,34.42
2023-04-08T21:28:40.750Z,42.38
2023-04-08T21:31:12.567Z,41.72
2023-04-08T21:33:40.622Z,41.47
2023-04-08T21:36:07.830Z,39.67
2023-04-08T21:38:35.348Z,40.97
2023-04-08T21:41:02.521Z,41.50
2023-04-08T21:43:29.532Z,35.63
2023-04-08T21:45:56.769Z,39.00
2023-04-08T21:48:23.759Z,35.50
2023-04-08T21:50:50.864Z,43.85
2023-04-08T21:53:18.060Z,36.17
2023-04-08T21:55:45.059Z,36.38
2023-04-08T21:58:12.392Z,39.25
2023-04-08T22:00:39.618Z,45.95
2023-04-08T22:03:07.552Z,36.95
2023-04-08T22:05:34.788Z,37.65
2023-04-08T22:08:02.223Z,38.15
2023-04-08T22:10:29.285Z,37.05
2023-04-08T22:12:56.279Z,35.83
2023-04-08T22:15:23.382Z,36.13
2023-04-08T22:17:50.387Z,42.20
2023-04-08T22:20:17.569Z,43.53
2023-04-08T22:22:44.619Z,40.97
2023-04-08T22:25:11.954Z,46.25
2023-04-08T22:27:38.965Z,39.92
2023-04-08T22:30:07.054Z,46.70
2023-04-08T22:32:34.081Z,40.03
2023-04-08T22:35:01.272Z,41.22
2023-04-08T22:37:28.384Z,36.20
2023-04-08T22:39:55.424Z,36.67
2023-04-08T22:42:22.499Z,39.33
2023-04-08T22:44:49.557Z,37.78
2023-04-08T22:47:18.187Z,37.72
2023-04-08T22:49:45.464Z,38.20
2023-04-08T22:52:12.521Z,42.97
2023-04-08T22:54:39.466Z,45.67
2023-04-08T22:57:06.491Z,44.42
2023-04-08T22:59:33.561Z,40.65
2023-04-08T23:02:00.600Z,38.70
2023-04-08T23:04:27.740Z,44.95
2023-04-08T23:06:54.811Z,37.85
2023-04-08T23:09:23.709Z,45.05
2023-04-08T23:11:51.131Z,45.17
2023-04-08T23:14:18.178Z,41.90
2023-04-08T23:16:45.257Z,41.42
2023-04-08T23:19:12.327Z,41.78
2023-04-08T23:21:40.393Z,46.63
2023-04-08T23:24:08.101Z,41.15
2023-04-08T23:26:35.200Z,43.05
2023-04-08T23:29:02.319Z,42.20
2023-04-08T23:31:29.363Z,42.50
2023-04-08T23:33:56.440Z,38.45
2023-04-08T23:36:23.487Z,44.90
2023-04-08T23:38:51.217Z,44.70
2023-04-08T23:41:18.449Z,40.58
2023-04-08T23:43:46.719Z,41.20
2023-04-08T23:46:13.896Z,40.45
2023-04-08T23:48:41.100Z,36.53
2023-04-08T23:51:08.124Z,47.85
2023-04-08T23:53:35.169Z,38.75
2023-04-08T23:56:06.727Z,40.45
2023-04-08T23:58:34.016Z,40.42
